Terminal Aerodrome Forecast
Issued by NWS

Home | Current Version | Previous Version | Text Only | Print | Product List | Glossary On
Versions: 1 2 3 4 5 6 7 8 9 10 11 12 13 14
638
FTUS45 KPSR 191740
TAFIPL
TAF
KIPL 191740Z 1918/2018 18006KT P6SM FEW060 SCT110
     FM192000 26015G25KT P6SM FEW070 SCT110
     FM200300 27010KT P6SM SCT120 BKN250=

USA.gov is the U.S. government's official web portal to all federal, state and local government web resources and services.